Wesco, Missouri
Current Conditions -  °F | °C
As of 9:53 AM on Sunday 23 Nov 2014 (Local Time) from KVIH Reporting Station
Moderate Rain Moderate Rain  
Wind Chill: 53°   Ceiling: 800
Heat Index: 53°   Visibility: 5mi
Dew Point: 51°   Wind: 9mph
Humidity: 93%   Direction: 160°SSE
Pressure: 29.57"   Gusts: NA
Location:  37.86°N, 91.43°W
Report Text: KVIH 231553Z AUTO 16008KT 5SM RA BR BKN008 OVC012 12/11 A2957 RMK AO2 CIG 005V009 SLP011 P0004 T01170106
Loading
Personal Weather Stations






























Interactive Weather Map New forecast layout! Learn more

10-Day Weather Forecast

Advertisements
Track Severe Weather on mobile